Time,TemperatureF,DewpointF,PressureIn,WindDirection,WindDirectionDegrees,WindSpeedMPH,WindSpeedGustMPH,Humidity,HourlyPrecipIn,Conditions,Clouds,dailyrainin,SoftwareType,DateUTC
2013-03-11 00:34:00,55.6,31.1,29.93,NW,324,4.0,12.0,39,0.00,,,0.00,VWS V14.01,2013-03-11 04:34:00,
2013-03-11 00:39:00,55.4,30.9,29.93,WNW,296,6.0,12.0,39,0.00,,,0.00,VWS V14.01,2013-03-11 04:39:00,
2013-03-11 00:44:00,55.3,31.4,29.93,SSW,208,0.0,12.0,40,0.00,,,0.00,VWS V14.01,2013-03-11 04:44:00,
2013-03-11 00:49:00,55.3,30.8,29.93,West,265,3.0,12.0,39,0.00,,,0.00,VWS V14.01,2013-03-11 04:49:00,
2013-03-11 00:55:00,55.3,30.8,29.93,West,280,5.0,12.0,39,0.00,,,0.00,VWS V14.01,2013-03-11 04:55:00,
2013-03-11 01:00:00,54.8,31.6,29.93,NW,321,4.0,12.0,41,0.00,,,0.00,VWS V14.01,2013-03-11 05:00:00,
2013-03-11 01:05:00,54.7,31.5,29.94,West,265,1.0,12.0,41,0.00,,,0.00,VWS V14.01,2013-03-11 05:05:00,
2013-03-11 01:10:00,54.8,31.6,29.94,WNW,300,2.0,12.0,41,0.00,,,0.00,VWS V14.01,2013-03-11 05:10:00,
2013-03-11 01:15:00,54.8,31.0,29.94,NW,304,3.0,12.0,40,0.00,,,0.00,VWS V14.01,2013-03-11 05:15:00,
2013-03-11 01:20:00,54.8,31.6,29.92,West,266,4.0,12.0,41,0.00,,,0.00,VWS V14.01,2013-03-11 05:20:00,
2013-03-11 01:25:00,54.8,32.2,29.92,NE,38,4.0,12.0,42,0.00,,,0.00,VWS V14.01,2013-03-11 05:25:00,
2013-03-11 01:30:00,54.8,32.8,29.92,NW,304,3.0,12.0,43,0.00,,,0.00,VWS V14.01,2013-03-11 05:30:00,
2013-03-11 01:35:00,54.7,31.5,29.91,NNW,330,10.0,12.0,41,0.00,,,0.00,VWS V14.01,2013-03-11 05:35:00,
2013-03-11 01:41:00,54.7,31.5,29.91,NNE,26,2.0,12.0,41,0.00,,,0.00,VWS V14.01,2013-03-11 05:41:00,
2013-03-11 01:46:00,54.8,32.2,29.91,WNW,292,2.0,12.0,42,0.00,,,0.00,VWS V14.01,2013-03-11 05:46:00,
2013-03-11 01:52:00,54.7,32.1,29.91,West,269,1.0,12.0,42,0.00,,,0.00,VWS V14.01,2013-03-11 05:52:00,
2013-03-11 01:57:00,54.7,32.1,29.91,NW,315,6.0,12.0,42,0.00,,,0.00,VWS V14.01,2013-03-11 05:57:00,
2013-03-11 02:02:00,54.7,32.1,29.91,NW,311,2.0,12.0,42,0.00,,,0.00,VWS V14.01,2013-03-11 06:02:00,
2013-03-11 02:07:00,54.7,32.1,29.90,WSW,246,3.0,12.0,42,0.00,,,0.00,VWS V14.01,2013-03-11 06:07:00,
2013-03-11 02:12:00,54.7,32.1,29.90,NW,312,4.0,12.0,42,0.00,,,0.00,VWS V14.01,2013-03-11 06:12:00,
2013-03-11 02:18:00,54.5,32.5,29.90,WSW,251,0.0,12.0,43,0.00,,,0.00,VWS V14.01,2013-03-11 06:18:00,
2013-03-11 02:23:00,54.5,32.5,29.90,WNW,300,6.0,12.0,43,0.00,,,0.00,VWS V14.01,2013-03-11 06:23:00,
2013-03-11 02:28:00,54.4,32.4,29.90,North,355,5.0,12.0,43,0.00,,,0.00,VWS V14.01,2013-03-11 06:28:00,
2013-03-11 02:33:00,54.4,33.0,29.90,West,260,3.0,12.0,44,0.00,,,0.00,VWS V14.01,2013-03-11 06:33:00,
2013-03-11 02:38:00,54.4,33.0,29.90,NW,311,6.0,12.0,44,0.00,,,0.00,VWS V14.01,2013-03-11 06:38:00,
2013-03-11 02:43:00,54.2,33.3,29.90,WNW,302,5.0,12.0,45,0.00,,,0.00,VWS V14.01,2013-03-11 06:43:00,
2013-03-11 02:48:00,54.2,33.3,29.90,NW,315,2.0,12.0,45,0.00,,,0.00,VWS V14.01,2013-03-11 06:48:00,
2013-03-11 02:54:00,54.1,33.8,29.89,NNW,329,1.0,12.0,46,0.00,,,0.00,VWS V14.01,2013-03-11 06:54:00,
2013-03-11 02:59:00,54.1,33.8,29.89,SW,219,1.0,12.0,46,0.00,,,0.00,VWS V14.01,2013-03-11 06:59:00,
2013-03-11 03:04:00,54.2,33.9,29.88,WSW,247,4.0,12.0,46,0.00,,,0.00,VWS V14.01,2013-03-11 07:04:00,
2013-03-11 03:09:00,54.2,33.9,29.88,ENE,65,4.0,12.0,46,0.00,,,0.00,VWS V14.01,2013-03-11 07:09:00,
2013-03-11 03:14:00,54.2,33.9,29.88,NNE,19,2.0,12.0,46,0.00,,,0.00,VWS V14.01,2013-03-11 07:14:00,
2013-03-11 03:19:00,54.4,34.1,29.87,ENE,57,3.0,12.0,46,0.00,,,0.00,VWS V14.01,2013-03-11 07:19:00,
2013-03-11 03:24:00,54.4,34.1,29.87,NW,320,7.0,12.0,46,0.00,,,0.00,VWS V14.01,2013-03-11 07:24:00,
2013-03-11 03:29:00,54.4,34.1,29.87,ESE,116,2.0,12.0,46,0.00,,,0.00,VWS V14.01,2013-03-11 07:29:00,
2013-03-11 03:35:00,54.4,34.1,29.86,West,276,4.0,12.0,46,0.00,,,0.00,VWS V14.01,2013-03-11 07:35:00,
2013-03-11 03:40:00,54.4,34.1,29.86,NE,44,2.0,12.0,46,0.00,,,0.00,VWS V14.01,2013-03-11 07:40:00,
2013-03-11 03:45:00,54.4,34.6,29.86,NW,324,3.0,12.0,47,0.00,,,0.00,VWS V14.01,2013-03-11 07:45:00,
2013-03-11 03:51:00,54.2,34.4,29.86,North,350,5.0,12.0,47,0.00,,,0.00,VWS V14.01,2013-03-11 07:51:00,
2013-03-11 03:56:00,54.1,34.3,29.86,SW,232,6.0,12.0,47,0.00,,,0.00,VWS V14.01,2013-03-11 07:56:00,
2013-03-11 04:01:00,54.1,34.9,29.86,South,177,3.0,12.0,48,0.00,,,0.00,VWS V14.01,2013-03-11 08:01:00,
2013-03-11 04:06:00,54.1,35.4,29.86,SSW,204,1.0,12.0,49,0.00,,,0.00,VWS V14.01,2013-03-11 08:06:00,
2013-03-11 04:11:00,53.9,35.2,29.86,SSW,194,4.0,12.0,49,0.00,,,0.00,VWS V14.01,2013-03-11 08:11:00,
2013-03-11 04:17:00,53.9,35.2,29.86,WNW,296,4.0,12.0,49,0.00,,,0.00,VWS V14.01,2013-03-11 08:17:00,
2013-03-11 04:22:00,53.9,35.7,29.85,NW,320,3.0,12.0,50,0.00,,,0.00,VWS V14.01,2013-03-11 08:22:00,
2013-03-11 04:27:00,53.8,35.6,29.85,ESE,113,2.0,12.0,50,0.00,,,0.00,VWS V14.01,2013-03-11 08:27:00,
2013-03-11 04:32:00,53.6,35.4,29.85,SW,219,0.0,12.0,50,0.00,,,0.00,VWS V14.01,2013-03-11 08:32:00,
2013-03-11 04:37:00,53.6,35.9,29.86,WSW,241,0.0,12.0,51,0.00,,,0.00,VWS V14.01,2013-03-11 08:37:00,
2013-03-11 04:42:00,53.8,36.1,29.86,West,272,7.0,12.0,51,0.00,,,0.00,VWS V14.01,2013-03-11 08:42:00,
2013-03-11 04:47:00,53.8,36.1,29.86,NW,325,1.0,12.0,51,0.00,,,0.00,VWS V14.01,2013-03-11 08:47:00,
2013-03-11 04:53:00,53.8,36.6,29.85,NW,310,3.0,12.0,52,0.00,,,0.00,VWS V14.01,2013-03-11 08:53:00,
2013-03-11 04:58:00,53.6,36.9,29.85,WSW,257,5.0,12.0,53,0.00,,,0.00,VWS V14.01,2013-03-11 08:58:00,
2013-03-11 05:03:00,53.8,35.1,29.85,NW,311,4.0,12.0,49,0.00,,,0.00,VWS V14.01,2013-03-11 09:03:00,
2013-03-11 05:08:00,53.8,37.6,29.84,ESE,122,1.0,12.0,54,0.00,,,0.00,VWS V14.01,2013-03-11 09:08:00,
2013-03-11 05:13:00,53.8,37.6,29.84,North,350,0.0,12.0,54,0.00,,,0.00,VWS V14.01,2013-03-11 09:13:00,
2013-03-11 05:18:00,53.8,38.0,29.84,SW,230,4.0,12.0,55,0.00,,,0.00,VWS V14.01,2013-03-11 09:18:00,
2013-03-11 05:23:00,53.6,37.8,29.84,North,5,1.0,12.0,55,0.00,,,0.00,VWS V14.01,2013-03-11 09:23:00,
2013-03-11 05:29:00,53.6,38.3,29.84,ENE,57,0.0,12.0,56,0.00,,,0.00,VWS V14.01,2013-03-11 09:29:00,
2013-03-11 05:34:00,53.8,38.5,29.84,WSW,240,0.0,12.0,56,0.00,,,0.00,VWS V14.01,2013-03-11 09:34:00,
2013-03-11 05:39:00,53.6,38.3,29.84,SSE,157,1.0,12.0,56,0.00,,,0.00,VWS V14.01,2013-03-11 09:39:00,
2013-03-11 05:44:00,53.6,38.8,29.84,ESE,116,1.0,12.0,57,0.00,,,0.00,VWS V14.01,2013-03-11 09:44:00,
2013-03-11 05:49:00,53.5,38.7,29.84,West,261,2.0,12.0,57,0.00,,,0.00,VWS V14.01,2013-03-11 09:49:00,
2013-03-11 05:54:00,53.3,38.9,29.84,NW,325,2.0,12.0,58,0.00,,,0.00,VWS V14.01,2013-03-11 09:54:00,
2013-03-11 05:59:00,53.2,39.3,29.84,NNW,339,5.0,12.0,59,0.00,,,0.00,VWS V14.01,2013-03-11 09:59:00,
2013-03-11 06:05:00,53.1,39.6,29.85,WNW,288,3.0,12.0,60,0.00,,,0.00,VWS V14.01,2013-03-11 10:05:00,
2013-03-11 06:10:00,52.9,39.8,29.85,West,271,3.0,12.0,61,0.00,,,0.00,VWS V14.01,2013-03-11 10:10:00,
2013-03-11 06:15:00,52.9,40.2,29.85,WNW,296,1.0,12.0,62,0.00,,,0.00,VWS V14.01,2013-03-11 10:15:00,
2013-03-11 06:21:00,52.9,40.2,29.85,WNW,287,1.0,12.0,62,0.00,,,0.00,VWS V14.01,2013-03-11 10:21:00,
2013-03-11 06:26:00,52.9,40.2,29.85,NNW,334,0.0,12.0,62,0.00,,,0.00,VWS V14.01,2013-03-11 10:26:00,
2013-03-11 06:32:00,52.9,40.2,29.85,West,262,0.0,12.0,62,0.00,,,0.00,VWS V14.01,2013-03-11 10:32:00,
2013-03-11 06:37:00,52.9,40.2,29.85,SW,222,0.0,12.0,62,0.00,,,0.00,VWS V14.01,2013-03-11 10:37:00,
2013-03-11 06:42:00,52.9,40.7,29.85,East,93,0.0,12.0,63,0.00,,,0.00,VWS V14.01,2013-03-11 10:42:00,
2013-03-11 06:47:00,53.1,40.4,29.85,East,94,0.0,12.0,62,0.00,,,0.00,VWS V14.01,2013-03-11 10:47:00,
2013-03-11 06:52:00,53.1,41.3,29.85,East,93,0.0,12.0,64,0.00,,,0.00,VWS V14.01,2013-03-11 10:52:00,
2013-03-11 06:58:00,53.1,41.3,29.85,NW,306,2.0,12.0,64,0.00,,,0.00,VWS V14.01,2013-03-11 10:58:00,
2013-03-11 07:03:00,52.9,41.1,29.85,NW,324,1.0,12.0,64,0.00,,,0.00,VWS V14.01,2013-03-11 11:03:00,
2013-03-11 07:08:00,52.8,41.4,29.86,NW,324,0.0,12.0,65,0.00,,,0.00,VWS V14.01,2013-03-11 11:08:00,
2013-03-11 07:13:00,52.5,41.1,29.86,NW,324,0.0,12.0,65,0.00,,,0.00,VWS V14.01,2013-03-11 11:13:00,
2013-03-11 07:18:00,51.9,40.9,29.86,NW,324,0.0,12.0,66,0.00,,,0.00,VWS V14.01,2013-03-11 11:18:00,
2013-03-11 07:24:00,51.3,40.3,29.87,NW,324,0.0,12.0,66,0.00,,,0.00,VWS V14.01,2013-03-11 11:24:00,
2013-03-11 07:29:00,51.0,40.8,29.87,NW,324,0.0,12.0,68,0.00,,,0.00,VWS V14.01,2013-03-11 11:29:00,
2013-03-11 07:34:00,50.8,41.0,29.88,NW,324,0.0,12.0,69,0.00,,,0.00,VWS V14.01,2013-03-11 11:34:00,
2013-03-11 07:39:00,50.8,41.0,29.88,NW,324,0.0,12.0,69,0.00,,,0.00,VWS V14.01,2013-03-11 11:39:00,
2013-03-11 07:44:00,50.7,40.9,29.88,NW,324,0.0,12.0,69,0.00,,,0.00,VWS V14.01,2013-03-11 11:44:00,
2013-03-11 07:49:00,50.7,40.9,29.88,NW,324,0.0,12.0,69,0.00,,,0.00,VWS V14.01,2013-03-11 11:49:00,
2013-03-11 07:54:00,50.7,41.7,29.88,NW,324,1.0,12.0,71,0.00,,,0.00,VWS V14.01,2013-03-11 11:54:00,
2013-03-11 08:00:00,50.8,41.8,29.88,NW,324,0.0,12.0,71,0.00,,,0.00,VWS V14.01,2013-03-11 12:00:00,
2013-03-11 08:05:00,50.8,41.4,29.89,NW,324,0.0,12.0,70,0.00,,,0.00,VWS V14.01,2013-03-11 12:05:00,
2013-03-11 08:10:00,51.0,41.9,29.89,NW,320,2.0,12.0,71,0.00,,,0.00,VWS V14.01,2013-03-11 12:10:00,
2013-03-11 08:16:00,51.4,43.0,29.89,SE,130,3.0,12.0,73,0.00,,,0.00,VWS V14.01,2013-03-11 12:16:00,
2013-03-11 08:22:00,51.6,42.2,29.88,SSE,156,0.0,12.0,70,0.00,,,0.00,VWS V14.01,2013-03-11 12:22:00,
2013-03-11 08:27:00,51.7,42.6,29.88,West,259,3.0,12.0,71,0.00,,,0.00,VWS V14.01,2013-03-11 12:27:00,
2013-03-11 08:32:00,51.9,42.4,29.88,NNE,16,2.0,12.0,70,0.00,,,0.00,VWS V14.01,2013-03-11 12:32:00,
2013-03-11 08:38:00,52.0,43.3,29.88,NNW,328,9.0,12.0,72,0.00,,,0.00,VWS V14.01,2013-03-11 12:38:00,
2013-03-11 08:43:00,52.6,43.1,29.87,SW,236,5.0,12.0,70,0.00,,,0.00,VWS V14.01,2013-03-11 12:43:00,
2013-03-11 08:48:00,53.2,44.4,29.87,ENE,67,0.0,12.0,72,0.00,,,0.00,VWS V14.01,2013-03-11 12:48:00,
2013-03-11 08:53:00,53.2,43.7,29.87,NNW,346,1.0,12.0,70,0.00,,,0.00,VWS V14.01,2013-03-11 12:53:00,
2013-03-11 08:59:00,53.3,44.5,29.87,NE,50,0.0,12.0,72,0.00,,,0.00,VWS V14.01,2013-03-11 12:59:00,
2013-03-11 09:04:00,53.8,45.0,29.87,SE,130,0.0,12.0,72,0.00,,,0.00,VWS V14.01,2013-03-11 13:04:00,
2013-03-11 09:09:00,54.2,45.0,29.87,NW,321,1.0,12.0,71,0.00,,,0.00,VWS V14.01,2013-03-11 13:09:00,
2013-03-11 09:14:00,54.7,45.1,29.86,West,263,0.0,12.0,70,0.00,,,0.00,VWS V14.01,2013-03-11 13:14:00,
2013-03-11 09:20:00,55.0,45.4,29.86,NW,311,6.0,12.0,70,0.00,,,0.00,VWS V14.01,2013-03-11 13:20:00,
2013-03-11 09:25:00,55.1,45.1,29.86,NE,55,0.0,12.0,69,0.00,,,0.00,VWS V14.01,2013-03-11 13:25:00,
2013-03-11 09:30:00,55.3,45.3,29.85,West,267,0.0,12.0,69,0.00,,,0.00,VWS V14.01,2013-03-11 13:30:00,
2013-03-11 09:36:00,55.3,45.3,29.85,NW,325,1.0,12.0,69,0.00,,,0.00,VWS V14.01,2013-03-11 13:36:00,
2013-03-11 09:41:00,55.4,45.4,29.85,West,279,4.0,12.0,69,0.00,,,0.00,VWS V14.01,2013-03-11 13:41:00,
2013-03-11 09:47:00,55.6,45.6,29.85,WSW,252,0.0,12.0,69,0.00,,,0.00,VWS V14.01,2013-03-11 13:47:00,
2013-03-11 09:52:00,55.6,45.6,29.85,WNW,293,1.0,12.0,69,0.00,,,0.00,VWS V14.01,2013-03-11 13:52:00,
2013-03-11 09:57:00,55.7,45.3,29.85,West,267,0.0,12.0,68,0.00,,,0.00,VWS V14.01,2013-03-11 13:57:00,
2013-03-11 10:03:00,55.9,45.5,29.85,SSW,212,0.0,12.0,68,0.00,,,0.00,VWS V14.01,2013-03-11 14:03:00,
2013-03-11 10:08:00,55.9,45.5,29.85,ESE,104,0.0,12.0,68,0.00,,,0.00,VWS V14.01,2013-03-11 14:08:00,
2013-03-11 10:13:00,55.9,45.5,29.84,NW,306,3.0,12.0,68,0.00,,,0.00,VWS V14.01,2013-03-11 14:13:00,
2013-03-11 10:18:00,56.0,45.2,29.84,NNW,332,3.0,12.0,67,0.00,,,0.00,VWS V14.01,2013-03-11 14:18:00,
2013-03-11 10:24:00,56.0,45.2,29.84,NE,37,5.0,12.0,67,0.00,,,0.00,VWS V14.01,2013-03-11 14:24:00,
2013-03-11 10:29:00,56.2,45.4,29.83,SW,223,2.0,12.0,67,0.00,,,0.00,VWS V14.01,2013-03-11 14:29:00,
2013-03-11 10:34:00,56.3,45.5,29.83,NNW,338,4.0,12.0,67,0.00,,,0.00,VWS V14.01,2013-03-11 14:34:00,
2013-03-11 10:39:00,56.3,45.1,29.83,NW,304,0.0,12.0,66,0.00,,,0.00,VWS V14.01,2013-03-11 14:39:00,
2013-03-11 10:44:00,56.3,45.1,29.83,NW,321,4.0,12.0,66,0.00,,,0.00,VWS V14.01,2013-03-11 14:44:00,
2013-03-11 10:49:00,56.5,45.3,29.83,NW,304,1.0,12.0,66,0.00,,,0.00,VWS V14.01,2013-03-11 14:49:00,
2013-03-11 10:54:00,56.6,45.4,29.83,SE,146,2.0,12.0,66,0.00,,,0.00,VWS V14.01,2013-03-11 14:54:00,
2013-03-11 10:59:00,56.7,45.1,29.83,WNW,290,0.0,12.0,65,0.00,,,0.00,VWS V14.01,2013-03-11 14:59:00,
2013-03-11 11:04:00,57.0,45.4,29.83,WNW,298,3.0,12.0,65,0.00,,,0.00,VWS V14.01,2013-03-11 15:04:00,
2013-03-11 11:10:00,57.3,45.2,29.83,NW,311,5.0,12.0,64,0.00,,,0.00,VWS V14.01,2013-03-11 15:10:00,
2013-03-11 11:15:00,57.8,45.3,29.82,East,92,0.0,12.0,63,0.00,,,0.00,VWS V14.01,2013-03-11 15:15:00,
2013-03-11 11:20:00,58.1,45.6,29.82,NE,36,4.0,12.0,63,0.00,,,0.00,VWS V14.01,2013-03-11 15:20:00,
2013-03-11 11:25:00,58.3,45.3,29.82,SSE,162,3.0,12.0,62,0.00,,,0.00,VWS V14.01,2013-03-11 15:25:00,
2013-03-11 11:31:00,58.3,45.3,29.80,South,190,3.0,12.0,62,0.00,,,0.00,VWS V14.01,2013-03-11 15:31:00,
2013-03-11 11:36:00,58.6,45.6,29.80,NNE,28,5.0,12.0,62,0.00,,,0.00,VWS V14.01,2013-03-11 15:36:00,
2013-03-11 11:41:00,58.7,45.7,29.80,SSE,153,3.0,12.0,62,0.00,,,0.00,VWS V14.01,2013-03-11 15:41:00,
2013-03-11 11:47:00,58.9,45.9,29.80,North,360,5.0,12.0,62,0.00,,,0.00,VWS V14.01,2013-03-11 15:47:00,
2013-03-11 11:52:00,58.7,45.7,29.80,South,174,6.0,12.0,62,0.00,,,0.00,VWS V14.01,2013-03-11 15:52:00,
2013-03-11 11:57:00,58.7,45.7,29.80,NNW,337,6.0,12.0,62,0.00,,,0.00,VWS V14.01,2013-03-11 15:57:00,
2013-03-11 12:02:00,58.7,45.7,29.80,SE,134,6.0,12.0,62,0.00,,,0.00,VWS V14.01,2013-03-11 16:02:00,
2013-03-11 12:08:00,58.7,45.7,29.80,NW,316,5.0,12.0,62,0.00,,,0.00,VWS V14.01,2013-03-11 16:08:00,
2013-03-11 12:13:00,58.7,45.7,29.80,South,188,4.0,12.0,62,0.00,,,0.00,VWS V14.01,2013-03-11 16:13:00,
2013-03-11 12:18:00,58.7,45.7,29.80,NNE,27,10.0,12.0,62,0.00,,,0.00,VWS V14.01,2013-03-11 16:18:00,
2013-03-11 12:23:00,58.7,45.7,29.80,North,350,4.0,12.0,62,0.00,,,0.00,VWS V14.01,2013-03-11 16:23:00,
2013-03-11 12:28:00,58.6,46.1,29.80,WNW,297,5.0,12.0,63,0.00,,,0.00,VWS V14.01,2013-03-11 16:28:00,
2013-03-11 12:34:00,58.6,46.1,29.80,SE,144,0.0,12.0,63,0.00,,,0.00,VWS V14.01,2013-03-11 16:34:00,
2013-03-11 12:39:00,58.6,46.1,29.80,North,350,3.0,12.0,63,0.00,,,0.00,VWS V14.01,2013-03-11 16:39:00,
2013-03-11 12:44:00,58.4,45.9,29.82,ENE,77,1.0,12.0,63,0.00,,,0.00,VWS V14.01,2013-03-11 16:44:00,
2013-03-11 12:49:00,58.4,46.3,29.82,WNW,298,12.0,12.0,64,0.00,,,0.00,VWS V14.01,2013-03-11 16:49:00,
2013-03-11 12:55:00,58.4,46.3,29.82,NNE,14,11.0,12.0,64,0.00,,,0.00,VWS V14.01,2013-03-11 16:55:00,
2013-03-11 13:00:00,58.4,45.9,29.81,East,100,4.0,12.0,63,0.00,,,0.00,VWS V14.01,2013-03-11 17:00:00,
2013-03-11 13:05:00,58.4,45.9,29.81,WSW,241,5.0,12.0,63,0.00,,,0.00,VWS V14.01,2013-03-11 17:05:00,
2013-03-11 13:10:00,58.7,46.2,29.81,NW,309,10.0,12.0,63,0.00,,,0.00,VWS V14.01,2013-03-11 17:10:00,
2013-03-11 13:15:00,58.7,45.7,29.80,West,267,6.0,12.0,62,0.00,,,0.00,VWS V14.01,2013-03-11 17:15:00,
2013-03-11 13:21:00,58.9,45.9,29.80,SSE,154,5.0,12.0,62,0.00,,,0.00,VWS V14.01,2013-03-11 17:21:00,
2013-03-11 13:26:00,58.9,45.9,29.80,East,88,3.0,12.0,62,0.00,,,0.00,VWS V14.01,2013-03-11 17:26:00,
2013-03-11 13:32:00,58.9,45.9,29.78,South,190,3.0,12.0,62,0.00,,,0.00,VWS V14.01,2013-03-11 17:32:00,
2013-03-11 13:37:00,58.9,45.9,29.78,SE,142,2.0,12.0,62,0.00,,,0.00,VWS V14.01,2013-03-11 17:37:00,
2013-03-11 13:42:00,59.0,46.0,29.78,South,170,6.0,12.0,62,0.00,,,0.00,VWS V14.01,2013-03-11 17:42:00,
2013-03-11 13:48:00,59.3,46.3,29.78,ENE,78,1.0,12.0,62,0.00,,,0.00,VWS V14.01,2013-03-11 17:48:00,
2013-03-11 13:53:00,59.3,46.3,29.78,NNW,327,5.0,12.0,62,0.00,,,0.00,VWS V14.01,2013-03-11 17:53:00,
2013-03-11 13:58:00,59.3,46.3,29.78,East,93,1.0,12.0,62,0.00,,,0.00,VWS V14.01,2013-03-11 17:58:00,
2013-03-11 14:03:00,59.5,46.5,29.76,ENE,71,3.0,12.0,62,0.00,,,0.00,VWS V14.01,2013-03-11 18:03:00,
2013-03-11 14:08:00,59.3,46.3,29.76,North,360,4.0,12.0,62,0.00,,,0.00,VWS V14.01,2013-03-11 18:08:00,
2013-03-11 14:13:00,59.3,46.3,29.75,NNE,33,2.0,12.0,62,0.00,,,0.00,VWS V14.01,2013-03-11 18:13:00,
2013-03-11 14:18:00,59.3,46.3,29.75,SSW,198,1.0,12.0,62,0.00,,,0.00,VWS V14.01,2013-03-11 18:18:00,
2013-03-11 14:24:00,59.5,46.5,29.75,West,273,3.0,12.0,62,0.00,,,0.00,VWS V14.01,2013-03-11 18:24:00,
2013-03-11 14:29:00,59.5,46.5,29.72,North,11,3.0,12.0,62,0.00,,,0.00,VWS V14.01,2013-03-11 18:29:00,
2013-03-11 14:34:00,59.5,46.1,29.72,WNW,301,3.0,12.0,61,0.00,,,0.00,VWS V14.01,2013-03-11 18:34:00,
2013-03-11 14:39:00,59.6,46.2,29.72,West,265,2.0,12.0,61,0.00,,,0.00,VWS V14.01,2013-03-11 18:39:00,
2013-03-11 14:45:00,59.6,46.2,29.74,NNW,327,2.0,12.0,61,0.00,,,0.00,VWS V14.01,2013-03-11 18:45:00,
2013-03-11 14:50:00,59.5,46.1,29.74,West,271,3.0,12.0,61,0.00,,,0.00,VWS V14.01,2013-03-11 18:50:00,
2013-03-11 14:55:00,59.5,46.1,29.74,ESE,122,0.0,12.0,61,0.00,,,0.00,VWS V14.01,2013-03-11 18:55:00,
2013-03-11 15:00:00,59.3,45.9,29.72,NNW,335,3.0,12.0,61,0.00,,,0.00,VWS V14.01,2013-03-11 19:00:00,
2013-03-11 15:06:00,59.3,45.9,29.72,NW,325,3.0,12.0,61,0.00,,,0.00,VWS V14.01,2013-03-11 19:06:00,
2013-03-11 15:12:00,59.0,46.0,29.72,NNW,337,5.0,12.0,62,0.00,,,0.00,VWS V14.01,2013-03-11 19:12:00,
2013-03-11 15:17:00,58.7,45.7,29.71,SW,215,2.0,12.0,62,0.00,,,0.00,VWS V14.01,2013-03-11 19:17:00,
2013-03-11 15:22:00,58.4,45.9,29.71,NE,44,5.0,12.0,63,0.00,,,0.00,VWS V14.01,2013-03-11 19:22:00,
2013-03-11 15:27:00,58.3,46.2,29.71,NW,319,10.0,12.0,64,0.00,,,0.00,VWS V14.01,2013-03-11 19:27:00,
2013-03-11 15:32:00,58.0,45.9,29.72,East,96,4.0,12.0,64,0.00,,,0.00,VWS V14.01,2013-03-11 19:32:00,
2013-03-11 15:38:00,57.8,45.7,29.72,South,185,3.0,12.0,64,0.00,,,0.00,VWS V14.01,2013-03-11 19:38:00,
2013-03-11 15:43:00,57.6,45.9,29.72,NW,322,7.0,12.0,65,0.00,,,0.00,VWS V14.01,2013-03-11 19:43:00,
2013-03-11 15:48:00,57.8,45.7,29.71,NNW,339,6.0,12.0,64,0.00,,,0.00,VWS V14.01,2013-03-11 19:48:00,
2013-03-11 15:53:00,57.8,45.7,29.71,WSW,256,7.0,12.0,64,0.00,,,0.00,VWS V14.01,2013-03-11 19:53:00,
2013-03-11 15:58:00,57.8,45.7,29.71,WSW,237,1.0,12.0,64,0.00,,,0.00,VWS V14.01,2013-03-11 19:58:00,
2013-03-11 16:04:00,57.8,45.7,29.71,South,177,3.0,12.0,64,0.00,,,0.00,VWS V14.01,2013-03-11 20:04:00,
2013-03-11 16:09:00,58.1,46.0,29.71,WSW,250,2.0,12.0,64,0.00,,,0.00,VWS V14.01,2013-03-11 20:09:00,
2013-03-11 16:14:00,58.3,45.8,29.70,NW,322,4.0,12.0,63,0.00,,,0.00,VWS V14.01,2013-03-11 20:14:00,
2013-03-11 16:19:00,58.6,45.6,29.70,WNW,294,3.0,12.0,62,0.00,,,0.00,VWS V14.01,2013-03-11 20:19:00,
2013-03-11 16:24:00,58.6,46.1,29.70,WSW,257,1.0,12.0,63,0.00,,,0.00,VWS V14.01,2013-03-11 20:24:00,
2013-03-11 16:29:00,58.6,45.6,29.72,SSW,213,2.0,12.0,62,0.00,,,0.00,VWS V14.01,2013-03-11 20:29:00,
2013-03-11 16:34:00,58.6,46.1,29.72,SSE,157,7.0,12.0,63,0.00,,,0.00,VWS V14.01,2013-03-11 20:34:00,
2013-03-11 16:39:00,58.4,47.1,29.72,NW,325,1.0,12.0,66,0.00,,,0.00,VWS V14.01,2013-03-11 20:39:00,
2013-03-11 16:44:00,57.3,48.0,29.74,West,263,5.0,12.0,71,0.01,,,0.01,VWS V14.01,2013-03-11 20:44:00,
2013-03-11 16:50:00,56.3,49.2,29.74,NW,306,2.0,12.0,77,0.02,,,0.02,VWS V14.01,2013-03-11 20:50:00,
2013-03-11 16:55:00,55.4,50.0,29.74,SW,215,0.0,12.0,82,0.03,,,0.03,VWS V14.01,2013-03-11 20:55:00,
2013-03-11 17:00:00,54.7,50.6,29.75,SW,215,0.0,12.0,86,0.04,,,0.04,VWS V14.01,2013-03-11 21:00:00,
2013-03-11 17:05:00,54.4,50.9,29.75,SW,215,0.0,12.0,88,0.05,,,0.05,VWS V14.01,2013-03-11 21:05:00,
2013-03-11 17:10:00,54.1,50.6,29.75,SW,225,0.0,12.0,88,0.05,,,0.05,VWS V14.01,2013-03-11 21:10:00,
2013-03-11 17:15:00,53.8,50.3,29.75,SW,226,1.0,12.0,88,0.05,,,0.05,VWS V14.01,2013-03-11 21:15:00,
2013-03-11 17:20:00,53.6,50.4,29.75,SW,226,0.0,12.0,89,0.06,,,0.06,VWS V14.01,2013-03-11 21:20:00,
2013-03-11 17:26:00,53.2,50.3,29.75,WNW,292,5.0,12.0,90,0.10,,,0.10,VWS V14.01,2013-03-11 21:26:00,
2013-03-11 17:32:00,53.1,50.5,29.78,West,277,2.0,12.0,91,0.14,,,0.14,VWS V14.01,2013-03-11 21:32:00,
2013-03-11 17:37:00,52.8,50.5,29.78,WSW,247,1.0,12.0,92,0.16,,,0.16,VWS V14.01,2013-03-11 21:37:00,
2013-03-11 17:42:00,52.5,50.2,29.78,WSW,258,3.0,12.0,92,0.18,,,0.18,VWS V14.01,2013-03-11 21:42:00,
2013-03-11 17:47:00,52.2,50.2,29.78,WNW,290,1.0,12.0,93,0.20,,,0.21,VWS V14.01,2013-03-11 21:47:00,
2013-03-11 17:53:00,52.0,50.0,29.78,SW,220,2.0,12.0,93,0.20,,,0.22,VWS V14.01,2013-03-11 21:53:00,
2013-03-11 17:58:00,51.7,49.8,29.78,WSW,252,3.0,12.0,93,0.20,,,0.23,VWS V14.01,2013-03-11 21:58:00,
2013-03-11 18:03:00,51.6,49.7,29.77,SW,236,0.0,12.0,93,0.20,,,0.24,VWS V14.01,2013-03-11 22:03:00,
2013-03-11 18:09:00,51.4,49.7,29.77,SW,234,0.0,12.0,94,0.19,,,0.24,VWS V14.01,2013-03-11 22:09:00,
2013-03-11 18:14:00,51.4,49.7,29.77,SW,236,0.0,12.0,94,0.20,,,0.25,VWS V14.01,2013-03-11 22:14:00,
2013-03-11 18:19:00,51.3,49.6,29.77,West,280,2.0,12.0,94,0.21,,,0.26,VWS V14.01,2013-03-11 22:19:00,
2013-03-11 18:24:00,51.3,49.6,29.77,WSW,238,1.0,12.0,94,0.20,,,0.26,VWS V14.01,2013-03-11 22:24:00,
2013-03-11 18:29:00,51.1,49.4,29.77,SSW,213,2.0,12.0,94,0.14,,,0.26,VWS V14.01,2013-03-11 22:29:00,
2013-03-11 18:34:00,51.0,49.3,29.77,SW,215,0.0,12.0,94,0.12,,,0.27,VWS V14.01,2013-03-11 22:34:00,
2013-03-11 18:39:00,51.0,49.3,29.77,WSW,246,5.0,12.0,94,0.10,,,0.27,VWS V14.01,2013-03-11 22:39:00,
2013-03-11 18:45:00,51.0,49.3,29.77,West,273,3.0,12.0,94,0.07,,,0.27,VWS V14.01,2013-03-11 22:45:00,
2013-03-11 18:50:00,51.0,49.3,29.77,WSW,255,0.0,12.0,94,0.06,,,0.28,VWS V14.01,2013-03-11 22:50:00,
2013-03-11 18:55:00,50.8,49.4,29.77,SW,219,2.0,12.0,95,0.06,,,0.28,VWS V14.01,2013-03-11 22:55:00,
2013-03-11 19:00:00,50.8,49.4,29.77,SW,219,0.0,12.0,95,0.05,,,0.28,VWS V14.01,2013-03-11 23:00:00,
2013-03-11 19:05:00,50.8,49.4,29.77,West,263,0.0,12.0,95,0.05,,,0.29,VWS V14.01,2013-03-11 23:05:00,
2013-03-11 19:11:00,50.7,49.3,29.77,WSW,252,0.0,12.0,95,0.06,,,0.30,VWS V14.01,2013-03-11 23:11:00,
2013-03-11 19:16:00,50.7,49.3,29.79,West,277,0.0,12.0,95,0.05,,,0.30,VWS V14.01,2013-03-11 23:16:00,
2013-03-11 19:21:00,50.7,49.3,29.79,West,277,0.0,12.0,95,0.05,,,0.31,VWS V14.01,2013-03-11 23:21:00,
2013-03-11 19:26:00,50.8,49.4,29.79,West,277,0.0,12.0,95,0.06,,,0.32,VWS V14.01,2013-03-11 23:26:00,
2013-03-11 19:31:00,51.0,49.6,29.79,West,277,2.0,12.0,95,0.07,,,0.33,VWS V14.01,2013-03-11 23:31:00,
2013-03-11 19:36:00,50.8,49.4,29.79,South,189,1.0,12.0,95,0.07,,,0.34,VWS V14.01,2013-03-11 23:36:00,
2013-03-11 19:42:00,50.7,49.3,29.79,West,277,1.0,12.0,95,0.07,,,0.34,VWS V14.01,2013-03-11 23:42:00,
2013-03-11 19:47:00,50.7,49.3,29.78,South,190,0.0,12.0,95,0.08,,,0.35,VWS V14.01,2013-03-11 23:47:00,
2013-03-11 19:52:00,50.5,49.1,29.78,WSW,245,0.0,12.0,95,0.08,,,0.36,VWS V14.01,2013-03-11 23:52:00,
2013-03-11 19:57:00,50.5,49.4,29.78,WSW,245,1.0,12.0,96,0.08,,,0.36,VWS V14.01,2013-03-11 23:57:00,
2013-03-11 20:03:00,50.5,49.4,29.79,SW,229,0.0,12.0,96,0.09,,,0.37,VWS V14.01,2013-03-12 00:03:00,
2013-03-11 20:08:00,50.7,49.6,29.79,SSW,211,0.0,12.0,96,0.08,,,0.37,VWS V14.01,2013-03-12 00:08:00,
2013-03-11 20:13:00,50.7,49.6,29.79,SSW,210,0.0,12.0,96,0.08,,,0.38,VWS V14.01,2013-03-12 00:13:00,
2013-03-11 20:18:00,50.7,49.6,29.78,ESE,121,1.0,12.0,96,0.09,,,0.39,VWS V14.01,2013-03-12 00:18:00,
2013-03-11 20:23:00,50.5,49.4,29.78,ESE,121,1.0,12.0,96,0.09,,,0.40,VWS V14.01,2013-03-12 00:23:00,
2013-03-11 20:29:00,50.4,49.3,29.75,ESE,107,1.0,12.0,96,0.10,,,0.41,VWS V14.01,2013-03-12 00:29:00,
2013-03-11 20:34:00,50.4,49.3,29.75,WNW,300,0.0,12.0,96,0.12,,,0.44,VWS V14.01,2013-03-12 00:34:00,
2013-03-11 20:39:00,50.4,49.3,29.75,WNW,291,2.0,12.0,96,0.12,,,0.45,VWS V14.01,2013-03-12 00:39:00,
2013-03-11 20:44:00,50.2,49.1,29.71,West,274,3.0,12.0,96,0.12,,,0.46,VWS V14.01,2013-03-12 00:44:00,
2013-03-11 20:49:00,50.1,49.0,29.71,West,269,5.0,12.0,96,0.11,,,0.46,VWS V14.01,2013-03-12 00:49:00,
2013-03-11 20:54:00,50.1,49.0,29.71,WSW,240,2.0,12.0,96,0.10,,,0.46,VWS V14.01,2013-03-12 00:54:00,
2013-03-11 20:59:00,50.1,49.0,29.74,SW,216,3.0,12.0,96,0.10,,,0.46,VWS V14.01,2013-03-12 00:59:00,
2013-03-11 21:05:00,50.1,49.0,29.74,WSW,256,0.0,12.0,96,0.09,,,0.46,VWS V14.01,2013-03-12 01:05:00,
2013-03-11 21:10:00,50.1,49.3,29.74,WSW,252,2.0,12.0,97,0.09,,,0.46,VWS V14.01,2013-03-12 01:10:00,
2013-03-11 21:15:00,50.1,49.0,29.75,SW,223,1.0,12.0,96,0.09,,,0.47,VWS V14.01,2013-03-12 01:15:00,
2013-03-11 21:20:00,50.2,49.4,29.75,SW,223,0.0,12.0,97,0.08,,,0.47,VWS V14.01,2013-03-12 01:20:00,
2013-03-11 21:25:00,50.1,49.0,29.75,SW,223,0.0,12.0,96,0.07,,,0.47,VWS V14.01,2013-03-12 01:25:00,
2013-03-11 21:31:00,50.1,49.3,29.74,SW,223,0.0,12.0,97,0.06,,,0.47,VWS V14.01,2013-03-12 01:31:00,
2013-03-11 21:36:00,50.2,49.4,29.74,SW,223,0.0,12.0,97,0.03,,,0.47,VWS V14.01,2013-03-12 01:36:00,
2013-03-11 21:41:00,50.2,49.4,29.74,SW,223,0.0,12.0,97,0.02,,,0.47,VWS V14.01,2013-03-12 01:41:00,
2013-03-11 21:46:00,50.2,49.4,29.74,SW,223,0.0,12.0,97,0.01,,,0.47,VWS V14.01,2013-03-12 01:46:00,
2013-03-11 21:51:00,50.4,49.6,29.74,SW,223,0.0,12.0,97,0.01,,,0.47,VWS V14.01,2013-03-12 01:51:00,
2013-03-11 21:56:00,50.2,49.1,29.74,SW,223,0.0,12.0,96,0.01,,,0.47,VWS V14.01,2013-03-12 01:56:00,
2013-03-11 22:02:00,50.1,49.0,29.73,SW,223,0.0,12.0,96,0.01,,,0.47,VWS V14.01,2013-03-12 02:02:00,
2013-03-11 22:07:00,50.1,49.0,29.73,SW,223,0.0,12.0,96,0.01,,,0.47,VWS V14.01,2013-03-12 02:07:00,
2013-03-11 22:12:00,49.9,48.8,29.73,SW,223,0.0,12.0,96,0.01,,,0.47,VWS V14.01,2013-03-12 02:12:00,
2013-03-11 22:17:00,49.8,48.7,29.74,SW,223,0.0,12.0,96,0.00,,,0.47,VWS V14.01,2013-03-12 02:17:00,
2013-03-11 22:23:00,49.6,48.5,29.74,SW,223,0.0,12.0,96,0.00,,,0.47,VWS V14.01,2013-03-12 02:23:00,
2013-03-11 22:28:00,49.8,48.7,29.74,SW,223,0.0,12.0,96,0.00,,,0.47,VWS V14.01,2013-03-12 02:28:00,
2013-03-11 22:33:00,49.8,48.7,29.73,SW,223,0.0,12.0,96,0.00,,,0.47,VWS V14.01,2013-03-12 02:33:00,
2013-03-11 22:38:00,49.9,48.8,29.73,SW,223,0.0,12.0,96,0.00,,,0.47,VWS V14.01,2013-03-12 02:38:00,
2013-03-11 22:43:00,49.8,48.7,29.74,SW,223,0.0,12.0,96,0.00,,,0.47,VWS V14.01,2013-03-12 02:43:00,
2013-03-11 22:48:00,49.6,48.5,29.74,SW,223,0.0,12.0,96,0.00,,,0.47,VWS V14.01,2013-03-12 02:48:00,
2013-03-11 22:54:00,49.6,48.5,29.74,SW,223,0.0,12.0,96,0.00,,,0.47,VWS V14.01,2013-03-12 02:54:00,
2013-03-11 22:59:00,49.6,48.5,29.73,SW,223,0.0,12.0,96,0.00,,,0.47,VWS V14.01,2013-03-12 02:59:00,
2013-03-11 23:04:00,49.5,48.4,29.73,SW,223,0.0,12.0,96,0.00,,,0.47,VWS V14.01,2013-03-12 03:04:00,
2013-03-11 23:09:00,49.5,48.4,29.73,SW,223,0.0,12.0,96,0.00,,,0.47,VWS V14.01,2013-03-12 03:09:00,
2013-03-11 23:14:00,49.4,48.3,29.73,SW,223,0.0,12.0,96,0.00,,,0.47,VWS V14.01,2013-03-12 03:14:00,
2013-03-11 23:19:00,49.5,48.4,29.73,SW,223,0.0,12.0,96,0.00,,,0.47,VWS V14.01,2013-03-12 03:19:00,
2013-03-11 23:24:00,49.5,48.4,29.73,SW,223,0.0,12.0,96,0.00,,,0.47,VWS V14.01,2013-03-12 03:24:00,
2013-03-11 23:29:00,49.4,48.3,29.74,SW,223,0.0,12.0,96,0.00,,,0.47,VWS V14.01,2013-03-12 03:29:00,
2013-03-11 23:34:00,49.5,48.4,29.74,SW,223,0.0,12.0,96,0.00,,,0.47,VWS V14.01,2013-03-12 03:34:00,
2013-03-11 23:39:00,49.6,48.5,29.74,SW,223,0.0,12.0,96,0.00,,,0.47,VWS V14.01,2013-03-12 03:39:00,
2013-03-11 23:45:00,49.6,48.5,29.73,SW,223,0.0,12.0,96,0.00,,,0.47,VWS V14.01,2013-03-12 03:45:00,
2013-03-11 23:50:00,49.5,48.4,29.73,SW,223,0.0,12.0,96,0.00,,,0.47,VWS V14.01,2013-03-12 03:50:00,
2013-03-11 23:55:00,49.6,48.5,29.73,SW,223,0.0,12.0,96,0.00,,,0.47,VWS V14.01,2013-03-12 03:55:00,